createdAt,value
2024-01-30T00:01:05.212Z,3.02
2024-01-30T00:03:08.292Z,3.00
2024-01-30T00:05:10.401Z,3.02
2024-01-30T00:07:12.420Z,2.85
2024-01-30T00:09:14.927Z,2.86
2024-01-30T00:11:17.724Z,2.90
2024-01-30T00:13:21.269Z,2.92
2024-01-30T00:15:23.540Z,2.86
2024-01-30T00:17:27.479Z,2.89
2024-01-30T00:19:29.654Z,2.89
2024-01-30T00:21:31.787Z,2.95
2024-01-30T00:23:33.925Z,2.98
2024-01-30T00:25:35.965Z,2.88
2024-01-30T00:27:38.111Z,2.91
2024-01-30T00:29:40.256Z,2.93
2024-01-30T00:31:42.551Z,2.92
2024-01-30T00:33:44.832Z,2.94
2024-01-30T00:35:46.897Z,2.95
2024-01-30T00:37:49.035Z,2.84
2024-01-30T00:39:51.111Z,2.94
2024-01-30T00:41:53.207Z,2.87
2024-01-30T00:43:55.249Z,2.75
2024-01-30T00:45:57.329Z,2.85
2024-01-30T00:47:59.555Z,2.76
2024-01-30T00:50:01.569Z,2.88
2024-01-30T00:52:04.034Z,2.86
2024-01-30T00:54:07.555Z,2.92
2024-01-30T00:56:09.771Z,2.85
2024-01-30T00:58:11.884Z,2.85
2024-01-30T01:00:17.162Z,2.80
2024-01-30T01:02:19.380Z,2.84
2024-01-30T01:04:22.822Z,2.84
2024-01-30T01:06:25.147Z,2.86
2024-01-30T01:08:28.095Z,2.84
2024-01-30T01:10:30.193Z,2.73
2024-01-30T01:12:32.235Z,2.79
2024-01-30T01:14:34.365Z,2.81
2024-01-30T01:16:37.237Z,2.78
2024-01-30T01:18:39.410Z,2.73
2024-01-30T01:20:41.735Z,2.69
2024-01-30T01:22:43.878Z,2.69
2024-01-30T01:24:45.897Z,2.76
2024-01-30T01:26:48.878Z,2.77
2024-01-30T01:28:50.880Z,2.77
2024-01-30T01:30:52.975Z,2.71
2024-01-30T01:32:58.910Z,2.76
2024-01-30T01:35:01.337Z,2.79
2024-01-30T01:37:03.528Z,2.81
2024-01-30T01:39:05.978Z,2.72
2024-01-30T01:41:08.124Z,2.72
2024-01-30T01:43:10.675Z,2.69
2024-01-30T01:45:12.789Z,2.63
2024-01-30T01:47:15.448Z,2.64
2024-01-30T01:49:17.919Z,2.63
2024-01-30T01:51:20.177Z,2.60
2024-01-30T01:53:23.162Z,2.54
2024-01-30T01:55:27.968Z,2.50
2024-01-30T01:57:29.982Z,2.56
2024-01-30T01:59:32.195Z,2.52
2024-01-30T02:01:34.997Z,2.53
2024-01-30T02:03:37.094Z,2.55
2024-01-30T02:05:40.833Z,2.52
2024-01-30T02:07:43.674Z,2.49
2024-01-30T02:09:45.826Z,2.46
2024-01-30T02:11:48.036Z,2.39
2024-01-30T02:13:51.461Z,2.28
2024-01-30T02:15:53.635Z,2.33
2024-01-30T02:17:55.719Z,2.34
2024-01-30T02:19:58.313Z,2.37
2024-01-30T02:22:00.873Z,2.30
2024-01-30T02:24:05.207Z,2.34
2024-01-30T02:26:07.285Z,2.31
2024-01-30T02:28:09.367Z,2.26
2024-01-30T02:30:12.214Z,2.29
2024-01-30T02:32:14.355Z,2.31
2024-01-30T02:34:16.486Z,2.34
2024-01-30T02:36:18.715Z,2.36
2024-01-30T02:38:20.782Z,2.38
2024-01-30T02:40:22.906Z,2.38
2024-01-30T02:42:25.011Z,2.40
2024-01-30T02:44:27.148Z,2.34
2024-01-30T02:46:49.428Z,2.23
2024-01-30T02:48:51.491Z,2.34
2024-01-30T02:50:53.646Z,2.37
2024-01-30T02:52:55.709Z,2.37
2024-01-30T02:54:57.775Z,2.37
2024-01-30T02:56:59.822Z,2.38
2024-01-30T02:59:01.915Z,2.44
2024-01-30T03:01:04.413Z,2.39
2024-01-30T03:03:06.648Z,2.34
2024-01-30T03:05:09.508Z,2.38
2024-01-30T03:07:11.614Z,2.37
2024-01-30T03:09:13.847Z,2.29
2024-01-30T03:11:15.913Z,2.29
2024-01-30T03:13:18.013Z,2.25
2024-01-30T03:15:20.147Z,2.30
2024-01-30T03:17:22.127Z,2.28
2024-01-30T03:19:24.362Z,2.16
2024-01-30T03:21:26.503Z,2.26
2024-01-30T03:23:28.568Z,2.30
2024-01-30T03:25:30.649Z,2.23
2024-01-30T03:27:32.728Z,2.21
2024-01-30T03:29:34.786Z,2.26
2024-01-30T03:31:36.787Z,2.33
2024-01-30T03:33:39.562Z,2.21
2024-01-30T03:35:41.657Z,2.35
2024-01-30T03:37:43.694Z,2.37
2024-01-30T03:39:45.901Z,2.34
2024-01-30T03:41:47.911Z,2.33
2024-01-30T03:43:50.040Z,2.32
2024-01-30T03:45:52.044Z,2.30
2024-01-30T03:47:54.210Z,2.31
2024-01-30T03:49:56.341Z,2.33
2024-01-30T03:51:58.513Z,2.37
2024-01-30T03:54:00.664Z,2.35
2024-01-30T03:56:02.680Z,2.33
2024-01-30T03:58:05.058Z,2.35
2024-01-30T04:00:07.775Z,2.16
2024-01-30T04:02:14.400Z,2.22
2024-01-30T04:04:16.530Z,2.12
2024-01-30T04:06:18.646Z,2.27
2024-01-30T04:08:20.916Z,2.31
2024-01-30T04:10:23.097Z,2.26
2024-01-30T04:12:25.655Z,2.19
2024-01-30T04:14:27.716Z,2.20
2024-01-30T04:16:29.766Z,2.24
2024-01-30T04:18:32.031Z,2.26
2024-01-30T04:20:34.036Z,2.27
2024-01-30T04:22:36.072Z,2.22
2024-01-30T04:24:38.153Z,2.22
2024-01-30T04:26:40.137Z,2.19
2024-01-30T04:29:05.350Z,2.15
2024-01-30T04:31:07.352Z,2.28
2024-01-30T04:33:09.432Z,2.28
2024-01-30T04:35:12.392Z,2.27
2024-01-30T04:37:14.864Z,2.23
2024-01-30T04:39:16.933Z,2.16
2024-01-30T04:41:18.967Z,2.16
2024-01-30T04:43:21.235Z,2.16
2024-01-30T04:45:23.260Z,2.16
2024-01-30T04:47:25.423Z,2.01
2024-01-30T04:49:27.599Z,2.09
2024-01-30T04:51:29.794Z,2.13
2024-01-30T04:53:32.558Z,2.13
2024-01-30T04:55:34.714Z,2.15
2024-01-30T04:57:38.056Z,2.08
2024-01-30T04:59:40.501Z,2.17
2024-01-30T05:01:43.036Z,2.18
2024-01-30T05:03:45.667Z,2.15
2024-01-30T05:05:48.196Z,2.14
2024-01-30T05:07:50.773Z,2.18
2024-01-30T05:09:54.559Z,2.11
2024-01-30T05:11:59.581Z,2.13
2024-01-30T05:14:01.772Z,2.08
2024-01-30T05:16:06.845Z,2.06
2024-01-30T05:18:09.239Z,2.07
2024-01-30T05:20:15.425Z,2.08
2024-01-30T05:22:20.212Z,2.06
2024-01-30T05:24:24.151Z,2.04
2024-01-30T05:26:28.019Z,1.98
2024-01-30T05:28:33.006Z,2.06
2024-01-30T05:30:35.309Z,2.08
2024-01-30T05:32:37.883Z,2.02
2024-01-30T05:34:40.552Z,2.15
2024-01-30T05:36:43.105Z,2.11
2024-01-30T05:40:29.028Z,2.12
2024-01-30T05:42:31.807Z,2.14
2024-01-30T05:44:34.759Z,2.12
2024-01-30T05:46:37.337Z,2.12
2024-01-30T05:48:40.087Z,2.10
2024-01-30T05:50:42.571Z,2.13
2024-01-30T05:52:45.112Z,2.15
2024-01-30T05:54:47.645Z,2.09
2024-01-30T05:56:50.279Z,2.09
2024-01-30T05:58:53.250Z,2.06
2024-01-30T06:00:56.136Z,2.09
2024-01-30T06:02:58.488Z,2.08
2024-01-30T06:05:00.970Z,2.13
2024-01-30T06:07:03.652Z,2.15
2024-01-30T06:09:07.490Z,2.15
2024-01-30T06:11:13.421Z,2.09
2024-01-30T06:13:16.170Z,2.07
2024-01-30T06:15:18.663Z,2.01
2024-01-30T06:17:21.506Z,2.10
2024-01-30T06:19:27.394Z,2.10
2024-01-30T06:21:33.708Z,2.12
2024-01-30T06:23:36.110Z,2.12
2024-01-30T06:25:39.014Z,2.20
2024-01-30T06:27:41.968Z,2.22
2024-01-30T06:29:44.951Z,2.20
2024-01-30T06:31:50.268Z,2.19
2024-01-30T06:33:54.141Z,2.27
2024-01-30T06:35:57.456Z,2.34
2024-01-30T06:38:00.276Z,2.44
2024-01-30T06:40:03.077Z,2.40
2024-01-30T06:42:06.426Z,2.54
2024-01-30T06:44:09.802Z,2.54
2024-01-30T06:46:12.183Z,2.73
2024-01-30T06:48:14.805Z,2.83
2024-01-30T06:50:18.222Z,2.79
2024-01-30T06:52:20.677Z,2.90
2024-01-30T06:54:23.029Z,2.90
2024-01-30T06:56:25.615Z,3.11
2024-01-30T06:58:28.103Z,3.06
2024-01-30T07:00:30.840Z,3.15
2024-01-30T07:02:33.448Z,3.22
2024-01-30T07:04:36.492Z,3.26
2024-01-30T07:06:39.088Z,3.41
2024-01-30T07:08:41.612Z,3.38
2024-01-30T07:10:43.970Z,3.27
2024-01-30T07:12:46.675Z,3.37
2024-01-30T07:14:49.785Z,3.42
2024-01-30T07:16:54.670Z,3.49
2024-01-30T07:18:58.333Z,3.70
2024-01-30T07:21:02.292Z,3.79
2024-01-30T07:23:04.911Z,3.76
2024-01-30T07:25:08.622Z,3.86
2024-01-30T07:27:14.417Z,3.93
2024-01-30T07:29:17.196Z,3.80
2024-01-30T07:31:24.994Z,4.01
2024-01-30T07:33:28.175Z,4.23
2024-01-30T07:35:31.199Z,4.17
2024-01-30T07:37:34.064Z,4.22
2024-01-30T07:39:43.608Z,4.26
2024-01-30T07:41:48.137Z,4.41
2024-01-30T07:43:50.607Z,4.26
2024-01-30T07:45:53.484Z,4.42
2024-01-30T07:47:55.617Z,4.34
2024-01-30T07:50:00.917Z,4.35
2024-01-30T07:52:03.839Z,4.28
2024-01-30T07:54:06.206Z,4.45
2024-01-30T07:56:08.447Z,4.33
2024-01-30T07:58:11.555Z,4.50
2024-01-30T08:00:14.381Z,4.45
2024-01-30T08:02:16.658Z,4.41
2024-01-30T08:04:19.173Z,4.45
2024-01-30T08:06:21.494Z,4.68
2024-01-30T08:08:23.670Z,4.55
2024-01-30T08:10:26.535Z,4.55
2024-01-30T08:12:28.768Z,4.70
2024-01-30T08:14:30.970Z,4.59
2024-01-30T08:16:32.979Z,4.74
2024-01-30T08:18:35.166Z,4.93
2024-01-30T08:20:37.181Z,4.89
2024-01-30T08:22:42.196Z,4.86
2024-01-30T08:24:44.438Z,5.04
2024-01-30T08:26:46.589Z,5.07
2024-01-30T08:28:48.817Z,5.20
2024-01-30T08:30:51.380Z,5.18
2024-01-30T08:32:53.521Z,5.23
2024-01-30T08:34:55.860Z,5.44
2024-01-30T08:36:57.965Z,5.57
2024-01-30T08:39:02.868Z,5.53
2024-01-30T08:41:08.482Z,5.54
2024-01-30T08:43:11.627Z,5.57
2024-01-30T08:45:13.803Z,5.76
2024-01-30T08:47:17.611Z,5.81
2024-01-30T08:49:21.703Z,5.74
2024-01-30T08:51:23.833Z,5.87
2024-01-30T08:53:26.045Z,5.95
2024-01-30T08:55:28.569Z,6.02
2024-01-30T08:57:31.810Z,6.05
2024-01-30T08:59:35.071Z,6.13
2024-01-30T09:01:37.786Z,6.15
2024-01-30T09:03:42.360Z,6.39
2024-01-30T09:05:44.522Z,6.38
2024-01-30T09:07:47.345Z,6.42
2024-01-30T09:09:50.512Z,6.41
2024-01-30T09:11:52.621Z,6.42
2024-01-30T09:13:54.720Z,6.54
2024-01-30T09:15:57.231Z,6.56
2024-01-30T09:17:59.343Z,6.56
2024-01-30T09:20:01.584Z,6.69
2024-01-30T09:22:04.308Z,6.75
2024-01-30T09:24:06.845Z,6.88
2024-01-30T09:26:09.021Z,6.83
2024-01-30T09:28:11.191Z,6.74
2024-01-30T09:30:14.129Z,6.90
2024-01-30T09:32:16.323Z,6.94
2024-01-30T09:34:18.398Z,7.02
2024-01-30T09:36:21.869Z,7.00
2024-01-30T09:38:23.837Z,7.16
2024-01-30T09:40:26.336Z,7.30
2024-01-30T09:42:38.081Z,7.36
2024-01-30T09:44:43.926Z,7.46
2024-01-30T09:46:49.687Z,7.52
2024-01-30T09:48:52.301Z,7.58
2024-01-30T09:50:55.196Z,7.64
2024-01-30T09:53:00.053Z,7.71
2024-01-30T09:55:02.694Z,7.82
2024-01-30T09:57:05.772Z,7.68
2024-01-30T09:59:07.947Z,7.84
2024-01-30T10:01:10.257Z,7.93
2024-01-30T10:03:12.491Z,8.02
2024-01-30T10:05:17.759Z,8.11
2024-01-30T10:07:20.781Z,8.20
2024-01-30T10:09:23.131Z,8.21
2024-01-30T10:11:26.023Z,8.26
2024-01-30T10:13:28.205Z,8.12
2024-01-30T10:15:30.797Z,8.27
2024-01-30T10:17:34.250Z,8.31
2024-01-30T10:19:37.409Z,8.32
2024-01-30T10:21:39.634Z,8.41
2024-01-30T10:23:41.687Z,8.52
2024-01-30T10:25:44.660Z,8.61
2024-01-30T10:27:46.987Z,8.58
2024-01-30T10:29:50.152Z,8.44
2024-01-30T10:32:07.707Z,8.49
2024-01-30T10:34:16.950Z,8.48
2024-01-30T10:36:30.086Z,8.64
2024-01-30T10:38:33.679Z,8.68
2024-01-30T10:40:37.607Z,8.67
2024-01-30T10:42:45.629Z,8.68
2024-01-30T10:45:10.364Z,8.57
2024-01-30T10:47:16.708Z,8.64
2024-01-30T10:49:19.768Z,8.77
2024-01-30T10:51:23.698Z,8.80
2024-01-30T10:53:26.871Z,8.81
2024-01-30T10:55:31.139Z,8.93
2024-01-30T10:57:35.710Z,8.91
2024-01-30T10:59:38.350Z,8.96
2024-01-30T11:01:41.317Z,9.00
2024-01-30T11:03:44.050Z,9.06
2024-01-30T11:05:51.522Z,9.00
2024-01-30T11:07:54.019Z,9.06
2024-01-30T11:09:59.664Z,9.11
2024-01-30T11:12:02.578Z,9.16
2024-01-30T11:14:04.899Z,9.19
2024-01-30T11:16:07.596Z,9.25
2024-01-30T11:18:09.836Z,9.23
2024-01-30T11:20:48.119Z,9.34
2024-01-30T11:22:57.257Z,9.38
2024-01-30T11:25:00.120Z,9.40
2024-01-30T11:27:09.333Z,9.42
2024-01-30T11:29:14.864Z,9.49
2024-01-30T11:31:20.257Z,9.43
2024-01-30T11:33:33.882Z,9.44
2024-01-30T11:35:38.222Z,9.38
2024-01-30T11:37:40.962Z,9.45
2024-01-30T11:39:44.515Z,9.44
2024-01-30T11:41:47.605Z,9.45
2024-01-30T11:43:56.082Z,9.46
2024-01-30T11:45:58.420Z,9.55
2024-01-30T11:48:05.524Z,9.56
2024-01-30T11:50:09.599Z,9.57
2024-01-30T11:52:12.442Z,9.63
2024-01-30T11:54:15.691Z,9.51
2024-01-30T11:56:17.911Z,9.52
2024-01-30T11:58:20.285Z,9.59
2024-01-30T12:00:22.676Z,9.71
2024-01-30T12:02:24.765Z,9.70
2024-01-30T12:04:30.942Z,9.70
2024-01-30T12:06:33.382Z,9.71
2024-01-30T12:08:35.979Z,9.72
2024-01-30T12:10:38.091Z,9.76
2024-01-30T12:12:41.206Z,9.79
2024-01-30T12:14:43.632Z,9.82
2024-01-30T12:16:50.818Z,9.73
2024-01-30T12:19:02.341Z,9.79
2024-01-30T12:21:04.650Z,9.75
2024-01-30T12:23:07.607Z,9.75
2024-01-30T12:25:10.963Z,9.71
2024-01-30T12:27:17.175Z,9.66
2024-01-30T12:29:19.496Z,9.69
2024-01-30T12:31:27.677Z,9.65
2024-01-30T12:33:31.048Z,9.75
2024-01-30T12:35:34.008Z,9.74
2024-01-30T12:37:36.378Z,9.68
2024-01-30T12:39:38.521Z,9.62
2024-01-30T12:41:40.809Z,9.61
2024-01-30T12:43:43.901Z,9.62
2024-01-30T12:45:46.007Z,9.71
2024-01-30T12:47:48.843Z,9.69
2024-01-30T12:49:54.665Z,9.63
2024-01-30T12:51:57.790Z,9.70
2024-01-30T12:54:00.314Z,9.68
2024-01-30T12:56:02.332Z,9.66
2024-01-30T12:58:04.778Z,9.74
2024-01-30T13:00:09.602Z,9.67
2024-01-30T13:02:12.662Z,9.70
2024-01-30T13:04:15.339Z,9.68
2024-01-30T13:06:17.476Z,9.65
2024-01-30T13:08:19.672Z,9.72
2024-01-30T13:10:21.718Z,9.65
2024-01-30T13:12:23.950Z,9.68
2024-01-30T13:14:26.490Z,9.64
2024-01-30T13:16:28.702Z,9.64
2024-01-30T13:18:30.921Z,9.66
2024-01-30T13:20:33.120Z,9.70
2024-01-30T13:22:35.435Z,9.61
2024-01-30T13:24:37.555Z,9.63
2024-01-30T13:26:39.614Z,9.61
2024-01-30T13:28:41.892Z,9.67
2024-01-30T13:30:43.994Z,9.51
2024-01-30T13:32:46.302Z,9.59
2024-01-30T13:34:48.801Z,9.58
2024-01-30T13:36:51.029Z,9.49
2024-01-30T13:38:53.172Z,9.54
2024-01-30T13:40:55.313Z,9.59
2024-01-30T13:42:57.508Z,9.56
2024-01-30T13:45:01.410Z,9.57
2024-01-30T13:47:03.950Z,9.58
2024-01-30T13:49:06.076Z,9.51
2024-01-30T13:51:08.366Z,9.51
2024-01-30T13:53:10.760Z,9.49
2024-01-30T13:55:13.142Z,9.39
2024-01-30T13:57:15.466Z,9.46
2024-01-30T13:59:24.053Z,9.45
2024-01-30T14:01:26.180Z,9.33
2024-01-30T14:03:28.374Z,9.39
2024-01-30T14:05:30.750Z,9.35
2024-01-30T14:07:33.010Z,9.36
2024-01-30T14:09:37.079Z,9.34
2024-01-30T14:11:39.107Z,9.33
2024-01-30T14:13:41.279Z,9.34
2024-01-30T14:15:43.496Z,9.31
2024-01-30T14:17:49.905Z,9.32
2024-01-30T14:19:52.143Z,9.25
2024-01-30T14:21:54.275Z,9.24
2024-01-30T14:23:56.493Z,9.20
2024-01-30T14:25:58.596Z,9.15
2024-01-30T14:28:00.768Z,9.21
2024-01-30T14:30:04.139Z,9.14
2024-01-30T14:32:06.824Z,9.08
2024-01-30T14:34:09.913Z,9.06
2024-01-30T14:36:12.058Z,9.02
2024-01-30T14:38:15.024Z,9.02
2024-01-30T14:40:18.039Z,9.02
2024-01-30T14:42:20.292Z,8.92
2024-01-30T14:44:22.429Z,8.90
2024-01-30T14:46:24.855Z,8.89
2024-01-30T14:48:27.041Z,8.87
2024-01-30T14:50:30.462Z,8.79
2024-01-30T14:52:33.021Z,8.79
2024-01-30T14:54:35.202Z,8.82
2024-01-30T14:56:37.459Z,8.77
2024-01-30T14:58:39.823Z,8.77
2024-01-30T15:00:41.883Z,8.69
2024-01-30T15:02:44.180Z,8.71
2024-01-30T15:04:46.507Z,8.66
2024-01-30T15:06:49.951Z,8.63
2024-01-30T15:08:53.221Z,8.60
2024-01-30T15:10:55.482Z,8.56
2024-01-30T15:12:57.644Z,8.56
2024-01-30T15:14:59.779Z,8.48
2024-01-30T15:17:02.710Z,8.46
2024-01-30T15:19:06.244Z,8.43
2024-01-30T15:21:08.533Z,8.39
2024-01-30T15:23:10.635Z,8.34
2024-01-30T15:25:12.919Z,8.33
2024-01-30T15:27:14.980Z,8.28
2024-01-30T15:29:17.116Z,8.25
2024-01-30T15:31:19.203Z,8.21
2024-01-30T15:33:21.341Z,8.25
2024-01-30T15:35:23.456Z,8.18
2024-01-30T15:37:25.727Z,8.15
2024-01-30T15:39:29.936Z,8.10
2024-01-30T15:41:32.360Z,8.03
2024-01-30T15:43:34.489Z,8.02
2024-01-30T15:45:36.677Z,7.94
2024-01-30T15:47:38.824Z,7.87
2024-01-30T15:49:41.169Z,7.79
2024-01-30T15:51:43.295Z,7.76
2024-01-30T15:53:45.444Z,7.68
2024-01-30T15:55:47.556Z,7.59
2024-01-30T15:57:49.649Z,7.56
2024-01-30T15:59:51.946Z,7.51
2024-01-30T16:01:54.173Z,7.49
2024-01-30T16:03:56.587Z,7.42
2024-01-30T16:06:01.349Z,7.36
2024-01-30T16:08:03.618Z,7.33
2024-01-30T16:10:06.624Z,7.31
2024-01-30T16:12:08.692Z,7.24
2024-01-30T16:14:10.979Z,7.21
2024-01-30T16:16:13.184Z,7.18
2024-01-30T16:18:15.292Z,7.17
2024-01-30T16:20:17.630Z,7.15
2024-01-30T16:22:19.955Z,7.18
2024-01-30T16:24:24.262Z,7.03
2024-01-30T16:26:27.851Z,7.05
2024-01-30T16:28:30.082Z,6.95
2024-01-30T16:30:32.309Z,6.94
2024-01-30T16:32:34.487Z,6.90
2024-01-30T16:34:37.024Z,6.90
2024-01-30T16:36:41.056Z,6.86
2024-01-30T16:38:43.674Z,6.88
2024-01-30T16:40:46.432Z,6.86
2024-01-30T16:42:48.674Z,6.82
2024-01-30T16:44:50.698Z,6.83
2024-01-30T16:46:53.036Z,6.76
2024-01-30T16:48:55.217Z,6.79
2024-01-30T16:50:58.201Z,6.72
2024-01-30T16:53:00.252Z,6.70
2024-01-30T16:55:02.510Z,6.69
2024-01-30T16:57:04.804Z,6.56
2024-01-30T16:59:07.005Z,6.53
2024-01-30T17:01:09.470Z,6.55
2024-01-30T17:03:11.780Z,6.47
2024-01-30T17:05:23.293Z,6.45
2024-01-30T17:07:35.318Z,6.47
2024-01-30T17:09:37.432Z,6.39
2024-01-30T17:11:39.795Z,6.35
2024-01-30T17:13:41.882Z,6.33
2024-01-30T17:15:44.059Z,6.19
2024-01-30T17:17:46.106Z,6.23
2024-01-30T17:19:48.318Z,6.07
2024-01-30T17:21:50.708Z,6.12
2024-01-30T17:23:53.000Z,6.13
2024-01-30T17:25:55.892Z,6.14
2024-01-30T17:27:59.258Z,6.06
2024-01-30T17:30:01.845Z,6.04
2024-01-30T17:32:05.465Z,6.00
2024-01-30T17:34:07.810Z,6.02
2024-01-30T17:36:10.000Z,5.97
2024-01-30T17:38:12.168Z,5.98
2024-01-30T17:40:14.465Z,5.98
2024-01-30T17:42:19.138Z,5.94
2024-01-30T17:44:22.145Z,5.93
2024-01-30T17:46:24.260Z,5.86
2024-01-30T17:48:26.426Z,5.81
2024-01-30T17:50:28.520Z,5.83
2024-01-30T17:52:30.902Z,5.77
2024-01-30T17:54:33.164Z,5.73
2024-01-30T17:56:35.839Z,5.71
2024-01-30T17:58:42.166Z,5.61
2024-01-30T18:00:44.282Z,5.66
2024-01-30T18:02:46.405Z,5.57
2024-01-30T18:04:49.104Z,5.61
2024-01-30T18:07:14.627Z,5.53
2024-01-30T18:09:16.769Z,5.53
2024-01-30T18:11:19.038Z,5.57
2024-01-30T18:13:21.235Z,5.54
2024-01-30T18:15:23.506Z,5.54
2024-01-30T18:17:26.806Z,5.48
2024-01-30T18:19:29.136Z,5.39
2024-01-30T18:21:31.519Z,5.45
2024-01-30T18:23:33.599Z,5.43
2024-01-30T18:25:35.809Z,5.36
2024-01-30T18:27:37.902Z,5.13
2024-01-30T18:29:40.861Z,5.23
2024-01-30T18:31:45.779Z,5.17
2024-01-30T18:33:52.612Z,5.18
2024-01-30T18:35:54.982Z,5.17
2024-01-30T18:37:57.186Z,5.16
2024-01-30T18:39:59.393Z,5.21
2024-01-30T18:42:04.599Z,5.18
2024-01-30T18:44:07.826Z,5.19
2024-01-30T18:46:12.257Z,5.18
2024-01-30T18:48:16.724Z,5.15
2024-01-30T18:50:18.921Z,5.13
2024-01-30T18:52:21.224Z,5.11
2024-01-30T18:54:25.429Z,5.10
2024-01-30T18:56:28.744Z,5.10
2024-01-30T18:58:31.280Z,5.04
2024-01-30T19:00:37.242Z,4.95
2024-01-30T19:02:41.716Z,4.98
2024-01-30T19:04:46.013Z,4.96
2024-01-30T19:06:52.975Z,4.99
2024-01-30T19:08:55.255Z,4.90
2024-01-30T19:10:57.549Z,4.98
2024-01-30T19:12:59.604Z,4.94
2024-01-30T19:15:01.680Z,4.89
2024-01-30T19:17:04.639Z,4.87
2024-01-30T19:19:07.969Z,4.86
2024-01-30T19:21:10.780Z,4.91
2024-01-30T19:23:12.940Z,4.84
2024-01-30T19:25:15.201Z,4.84
2024-01-30T19:27:17.533Z,4.80
2024-01-30T19:29:22.811Z,4.82
2024-01-30T19:31:25.442Z,4.76
2024-01-30T19:33:29.039Z,4.82
2024-01-30T19:35:31.997Z,4.77
2024-01-30T19:37:36.531Z,4.72
2024-01-30T19:39:39.921Z,4.68
2024-01-30T19:41:45.026Z,4.63
2024-01-30T19:43:47.492Z,4.61
2024-01-30T19:45:49.738Z,4.60
2024-01-30T19:47:53.897Z,4.56
2024-01-30T19:49:56.308Z,4.53
2024-01-30T19:52:04.675Z,4.55
2024-01-30T19:54:07.702Z,4.50
2024-01-30T19:56:09.860Z,4.47
2024-01-30T19:58:11.936Z,4.48
2024-01-30T20:00:14.760Z,4.44
2024-01-30T20:02:20.400Z,4.44
2024-01-30T20:04:22.611Z,4.39
2024-01-30T20:06:24.809Z,4.39
2024-01-30T20:08:28.529Z,4.35
2024-01-30T20:10:33.833Z,4.33
2024-01-30T20:12:36.723Z,4.29
2024-01-30T20:14:38.975Z,4.28
2024-01-30T20:16:42.843Z,4.26
2024-01-30T20:18:45.056Z,4.25
2024-01-30T20:20:47.370Z,4.26
2024-01-30T20:22:49.452Z,4.20
2024-01-30T20:24:53.950Z,4.18
2024-01-30T20:27:01.629Z,4.15
2024-01-30T20:29:03.970Z,4.17
2024-01-30T20:31:07.189Z,4.17
2024-01-30T20:33:15.524Z,4.13
2024-01-30T20:35:17.787Z,4.07
2024-01-30T20:37:19.879Z,4.04
2024-01-30T20:39:22.314Z,4.06
2024-01-30T20:41:24.288Z,4.02
2024-01-30T20:43:26.547Z,3.99
2024-01-30T20:45:28.793Z,3.99
2024-01-30T20:47:31.494Z,3.96
2024-01-30T20:49:33.933Z,3.91
2024-01-30T20:51:36.382Z,4.00
2024-01-30T20:53:38.874Z,3.95
2024-01-30T20:55:41.016Z,3.89
2024-01-30T20:57:43.650Z,3.76
2024-01-30T20:59:45.736Z,3.82
2024-01-30T21:01:47.802Z,3.82
2024-01-30T21:03:52.118Z,3.79
2024-01-30T21:05:54.150Z,3.76
2024-01-30T21:07:57.093Z,3.74
2024-01-30T21:09:59.301Z,3.74
2024-01-30T21:12:01.366Z,3.71
2024-01-30T21:14:04.992Z,3.76
2024-01-30T21:16:07.580Z,3.70
2024-01-30T21:18:10.532Z,3.73
2024-01-30T21:20:15.207Z,3.69
2024-01-30T21:22:17.504Z,3.71
2024-01-30T21:24:19.648Z,3.65
2024-01-30T21:26:21.826Z,3.65
2024-01-30T21:28:23.955Z,3.64
2024-01-30T21:30:27.012Z,3.38
2024-01-30T21:32:29.075Z,3.51
2024-01-30T21:34:31.414Z,3.56
2024-01-30T21:36:33.607Z,3.53
2024-01-30T21:38:36.608Z,3.49
2024-01-30T21:40:38.867Z,3.52
2024-01-30T21:42:41.512Z,3.43
2024-01-30T21:44:43.537Z,3.45
2024-01-30T21:46:45.605Z,3.35
2024-01-30T21:48:47.993Z,3.37
2024-01-30T21:50:50.074Z,3.28
2024-01-30T21:52:53.314Z,3.15
2024-01-30T21:54:55.445Z,3.28
2024-01-30T21:56:57.542Z,3.31
2024-01-30T21:58:59.627Z,3.33
2024-01-30T22:01:01.825Z,3.38
2024-01-30T22:03:04.129Z,3.32
2024-01-30T22:05:06.799Z,3.31
2024-01-30T22:07:08.916Z,3.28
2024-01-30T22:09:13.886Z,3.26
2024-01-30T22:11:16.141Z,3.23
2024-01-30T22:13:18.336Z,3.26
2024-01-30T22:15:20.408Z,3.21
2024-01-30T22:17:23.700Z,3.16
2024-01-30T22:19:25.733Z,3.21
2024-01-30T22:21:27.832Z,3.20
2024-01-30T22:23:30.217Z,3.08
2024-01-30T22:25:32.386Z,3.18
2024-01-30T22:27:34.487Z,3.17
2024-01-30T22:29:36.544Z,3.14
2024-01-30T22:31:38.699Z,3.05
2024-01-30T22:33:40.922Z,3.09
2024-01-30T22:35:43.074Z,3.00
2024-01-30T22:37:45.278Z,2.98
2024-01-30T22:39:47.361Z,2.95
2024-01-30T22:41:49.398Z,2.86
2024-01-30T22:43:52.235Z,2.95
2024-01-30T22:45:54.372Z,2.94
2024-01-30T22:47:57.107Z,2.84
2024-01-30T22:49:59.255Z,2.65
2024-01-30T22:52:01.320Z,2.81
2024-01-30T22:54:03.411Z,2.86
2024-01-30T22:56:06.027Z,2.81
2024-01-30T22:58:08.256Z,2.88
2024-01-30T23:00:16.275Z,2.86
2024-01-30T23:02:18.505Z,2.89
2024-01-30T23:04:20.649Z,2.87
2024-01-30T23:06:22.831Z,2.87
2024-01-30T23:08:24.922Z,2.92
2024-01-30T23:10:27.216Z,2.98
2024-01-30T23:12:29.289Z,2.96
2024-01-30T23:14:31.429Z,2.89
2024-01-30T23:16:33.508Z,2.92
2024-01-30T23:18:35.718Z,2.97
2024-01-30T23:20:37.977Z,3.05
2024-01-30T23:22:40.045Z,3.03
2024-01-30T23:24:42.125Z,3.03
2024-01-30T23:26:44.158Z,3.08
2024-01-30T23:28:46.292Z,2.96
2024-01-30T23:30:48.721Z,2.97
2024-01-30T23:32:50.815Z,2.99
2024-01-30T23:34:53.166Z,2.97
2024-01-30T23:36:55.397Z,2.92
2024-01-30T23:38:57.545Z,2.96
2024-01-30T23:40:59.539Z,2.89
2024-01-30T23:43:02.643Z,2.95
2024-01-30T23:45:05.548Z,2.97
2024-01-30T23:47:08.730Z,2.96
2024-01-30T23:49:13.083Z,3.00
2024-01-30T23:51:15.191Z,2.95
2024-01-30T23:53:17.288Z,2.88
2024-01-30T23:55:19.460Z,2.91
2024-01-30T23:57:22.845Z,2.89
2024-01-30T23:59:24.847Z,2.93
